createdAt,value
2019-04-30T00:01:17.022Z,92.20
2019-04-30T00:04:45.146Z,91.70
2019-04-30T00:07:58.416Z,92.10
2019-04-30T00:11:06.431Z,92.60
2019-04-30T00:14:15.562Z,93.10
2019-04-30T00:17:25.644Z,93.10
2019-04-30T00:20:37.043Z,93.20
2019-04-30T00:23:43.294Z,93.40
2019-04-30T00:26:52.594Z,93.70
2019-04-30T00:30:07.331Z,93.60
2019-04-30T00:33:15.285Z,93.70
2019-04-30T00:36:22.067Z,93.60
2019-04-30T00:39:30.811Z,93.60
2019-04-30T00:42:40.912Z,93.40
2019-04-30T00:45:49.608Z,93.40
2019-04-30T00:49:08.793Z,93.30
2019-04-30T00:52:08.513Z,93.40
2019-04-30T00:55:17.144Z,93.40
2019-04-30T00:58:36.065Z,93.30
2019-04-30T01:02:02.961Z,93.20
2019-04-30T01:05:16.136Z,93.30
2019-04-30T01:08:27.616Z,93.40
2019-04-30T01:11:35.524Z,93.70
2019-04-30T01:14:54.497Z,93.90
2019-04-30T01:18:03.064Z,94.00
2019-04-30T01:21:13.309Z,93.90
2019-04-30T01:24:23.488Z,94.00
2019-04-30T01:27:34.024Z,93.80
2019-04-30T01:30:43.353Z,94.00
2019-04-30T01:33:51.978Z,94.00
2019-04-30T01:37:00.603Z,93.90
2019-04-30T01:40:13.579Z,94.20
2019-04-30T01:43:23.193Z,94.00
2019-04-30T01:46:30.269Z,94.60
2019-04-30T01:49:42.891Z,94.80
2019-04-30T01:52:55.474Z,95.00
2019-04-30T01:56:21.955Z,95.40
2019-04-30T01:59:49.560Z,95.70
2019-04-30T02:02:59.259Z,95.60
2019-04-30T02:06:19.716Z,95.60
2019-04-30T02:09:28.753Z,96.20
2019-04-30T02:12:39.265Z,96.10
2019-04-30T02:15:49.274Z,96.30
2019-04-30T02:18:59.685Z,96.50
2019-04-30T02:22:09.522Z,96.40
2019-04-30T02:25:19.553Z,96.50
2019-04-30T02:28:29.017Z,96.60
2019-04-30T02:31:40.567Z,96.50
2019-04-30T02:34:55.799Z,97.30
2019-04-30T02:38:34.459Z,96.90
2019-04-30T02:41:44.380Z,97.00
2019-04-30T02:45:04.251Z,97.00
2019-04-30T02:48:13.412Z,97.00
2019-04-30T02:51:25.370Z,97.20
2019-04-30T02:54:35.550Z,97.30
2019-04-30T02:57:44.389Z,97.60
2019-04-30T03:00:53.101Z,97.40
2019-04-30T03:04:01.829Z,97.60
2019-04-30T03:07:10.473Z,97.70
2019-04-30T03:10:19.860Z,98.00
2019-04-30T03:13:29.947Z,98.20
2019-04-30T03:17:00.103Z,98.20
2019-04-30T03:20:45.989Z,98.40
2019-04-30T03:24:12.978Z,98.20
2019-04-30T03:27:24.586Z,98.80
2019-04-30T03:30:32.507Z,98.80
2019-04-30T03:33:42.611Z,98.80
2019-04-30T03:37:02.302Z,98.90
2019-04-30T03:40:13.148Z,99.00
2019-04-30T03:43:22.115Z,99.10
2019-04-30T03:46:30.712Z,99.30
2019-04-30T03:49:40.259Z,99.30
2019-04-30T03:53:00.781Z,99.30
2019-04-30T03:56:09.547Z,99.80
2019-04-30T03:59:19.954Z,99.90
2019-04-30T04:02:42.006Z,99.90
2019-04-30T04:05:55.707Z,99.90
2019-04-30T04:09:14.494Z,99.90
2019-04-30T04:12:44.625Z,99.90
2019-04-30T04:15:59.781Z,99.90
2019-04-30T04:19:19.621Z,99.90
2019-04-30T04:22:26.269Z,99.90
2019-04-30T04:25:35.005Z,99.90
2019-04-30T04:28:43.707Z,99.90
2019-04-30T04:31:52.442Z,99.90
2019-04-30T04:35:01.162Z,99.90
2019-04-30T04:38:12.261Z,99.90
2019-04-30T04:41:19.803Z,99.90
2019-04-30T04:44:29.496Z,99.90
2019-04-30T04:47:40.178Z,99.90
2019-04-30T04:50:50.191Z,99.90
2019-04-30T04:54:03.137Z,99.90
2019-04-30T04:57:17.653Z,99.90
2019-04-30T05:00:22.648Z,99.90
2019-04-30T05:03:34.419Z,99.90
2019-04-30T05:06:46.176Z,99.90
2019-04-30T05:09:54.790Z,99.90
2019-04-30T05:13:13.793Z,99.90
2019-04-30T05:16:22.469Z,99.90
2019-04-30T05:19:31.210Z,99.90
2019-04-30T05:22:41.499Z,99.90
2019-04-30T05:25:50.157Z,99.90
2019-04-30T05:28:59.440Z,99.90
2019-04-30T05:32:19.686Z,99.90
2019-04-30T05:35:31.110Z,99.90
2019-04-30T05:38:41.146Z,99.90
2019-04-30T05:41:49.897Z,99.90
2019-04-30T05:44:59.264Z,99.90
2019-04-30T05:48:08.949Z,99.90
2019-04-30T05:51:19.383Z,99.90
2019-04-30T05:54:29.150Z,99.90
2019-04-30T05:57:52.427Z,99.90
2019-04-30T06:00:49.918Z,99.90
2019-04-30T06:03:59.475Z,99.90
2019-04-30T06:07:08.610Z,99.90
2019-04-30T06:10:39.739Z,99.90
2019-04-30T06:14:04.267Z,99.90
2019-04-30T06:17:15.434Z,99.90
2019-04-30T06:20:24.232Z,99.90
2019-04-30T06:23:32.876Z,99.90
2019-04-30T06:26:41.626Z,99.90
2019-04-30T06:29:51.753Z,99.50
2019-04-30T06:33:02.449Z,99.30
2019-04-30T06:36:12.629Z,99.20
2019-04-30T06:39:21.421Z,98.90
2019-04-30T06:42:30.428Z,98.70
2019-04-30T06:45:38.983Z,98.80
2019-04-30T06:48:50.846Z,98.40
2019-04-30T06:51:58.822Z,97.90
2019-04-30T06:55:09.437Z,96.80
2019-04-30T06:58:29.141Z,96.40
2019-04-30T07:01:38.850Z,96.40
2019-04-30T07:04:49.111Z,95.90
2019-04-30T07:08:15.960Z,95.20
2019-04-30T07:11:39.091Z,94.10
2019-04-30T07:14:49.362Z,93.30
2019-04-30T07:17:59.192Z,93.30
2019-04-30T07:21:08.735Z,92.60
2019-04-30T07:24:20.783Z,92.10
2019-04-30T07:27:31.938Z,91.10
2019-04-30T07:30:39.497Z,90.40
2019-04-30T07:33:53.087Z,89.70
2019-04-30T07:37:11.817Z,89.50
2019-04-30T07:40:09.972Z,90.00
2019-04-30T07:43:29.021Z,90.20
2019-04-30T07:46:41.084Z,90.40
2019-04-30T07:49:52.902Z,89.90
2019-04-30T07:53:05.658Z,89.00
2019-04-30T07:56:24.104Z,87.90
2019-04-30T07:59:20.768Z,86.40
2019-04-30T08:02:36.731Z,85.40
2019-04-30T08:05:43.963Z,84.00
2019-04-30T08:08:57.299Z,83.00
2019-04-30T08:12:22.243Z,79.70
2019-04-30T08:15:24.788Z,77.20
2019-04-30T08:18:34.529Z,79.10
2019-04-30T08:21:54.714Z,79.80
2019-04-30T08:25:03.277Z,79.50
2019-04-30T08:28:11.971Z,80.20
2019-04-30T08:31:21.986Z,79.90
2019-04-30T08:34:41.016Z,80.30
2019-04-30T08:37:49.878Z,78.70
2019-04-30T08:41:00.762Z,78.10
2019-04-30T08:44:09.386Z,77.10
2019-04-30T08:47:20.948Z,77.20
2019-04-30T08:50:29.674Z,77.60
2019-04-30T08:53:49.241Z,77.40
2019-04-30T08:56:59.510Z,78.10
2019-04-30T09:00:11.844Z,79.00
2019-04-30T09:03:21.594Z,77.90
2019-04-30T09:06:30.634Z,77.50
2019-04-30T09:09:39.449Z,77.50
2019-04-30T09:12:51.893Z,77.10
2019-04-30T09:15:59.595Z,76.20
2019-04-30T09:19:09.775Z,76.90
2019-04-30T09:22:19.493Z,76.50
2019-04-30T09:25:28.874Z,76.10
2019-04-30T09:28:49.421Z,76.30
2019-04-30T09:31:59.459Z,76.70
2019-04-30T09:35:09.569Z,76.90
2019-04-30T09:38:19.526Z,77.60
2019-04-30T09:41:28.841Z,79.80
2019-04-30T09:44:39.011Z,75.80
2019-04-30T09:47:47.832Z,76.40
2019-04-30T09:50:56.915Z,77.30
2019-04-30T09:54:06.676Z,78.00
2019-04-30T09:57:15.713Z,78.60
2019-04-30T10:00:24.771Z,78.50
2019-04-30T10:03:34.263Z,77.60
2019-04-30T10:06:43.527Z,77.50
2019-04-30T10:10:02.876Z,76.20
2019-04-30T10:13:11.439Z,75.90
2019-04-30T10:16:33.332Z,74.20
2019-04-30T10:19:42.003Z,72.60
2019-04-30T10:22:50.644Z,70.10
2019-04-30T10:25:59.473Z,67.00
2019-04-30T10:29:08.311Z,66.90
2019-04-30T10:32:18.595Z,68.70
2019-04-30T10:35:28.574Z,69.20
2019-04-30T10:38:39.262Z,70.10
2019-04-30T10:41:47.778Z,69.60
2019-04-30T10:45:00.019Z,68.60
2019-04-30T10:48:06.828Z,68.60
2019-04-30T10:51:16.689Z,68.40
2019-04-30T10:54:28.917Z,68.40
2019-04-30T10:57:37.343Z,67.20
2019-04-30T11:00:47.081Z,66.60
2019-04-30T11:03:55.714Z,68.00
2019-04-30T11:07:04.748Z,68.20
2019-04-30T11:10:13.475Z,69.50
2019-04-30T11:13:22.231Z,69.10
2019-04-30T11:16:30.805Z,69.20
2019-04-30T11:19:39.608Z,67.70
2019-04-30T11:22:48.671Z,68.30
2019-04-30T11:25:59.635Z,69.20
2019-04-30T11:29:07.775Z,69.20
2019-04-30T11:32:22.630Z,69.40
2019-04-30T11:35:41.472Z,69.50
2019-04-30T11:38:50.181Z,69.80
2019-04-30T11:42:03.836Z,69.40
2019-04-30T11:45:15.228Z,70.10
2019-04-30T11:48:23.749Z,68.80
2019-04-30T11:51:32.482Z,69.20
2019-04-30T11:54:54.322Z,70.10
2019-04-30T11:58:02.831Z,69.00
2019-04-30T12:01:15.919Z,69.90
2019-04-30T12:04:24.569Z,70.20
2019-04-30T12:07:59.772Z,70.60
2019-04-30T12:11:31.309Z,70.70
2019-04-30T12:14:39.934Z,70.40
2019-04-30T12:17:48.714Z,71.30
2019-04-30T12:20:58.711Z,71.50
2019-04-30T12:24:07.348Z,69.40
2019-04-30T12:27:26.337Z,69.30
2019-04-30T12:30:36.094Z,68.80
2019-04-30T12:33:44.923Z,67.70
2019-04-30T12:36:53.531Z,65.80
2019-04-30T12:40:02.299Z,61.40
2019-04-30T12:43:10.997Z,59.50
2019-04-30T12:46:21.270Z,58.30
2019-04-30T12:49:46.608Z,55.90
2019-04-30T12:52:59.654Z,54.80
2019-04-30T12:56:38.083Z,53.90
2019-04-30T12:59:46.877Z,53.00
2019-04-30T13:02:55.459Z,52.40
2019-04-30T13:06:06.092Z,54.00
2019-04-30T13:09:15.924Z,54.50
2019-04-30T13:12:25.579Z,55.90
2019-04-30T13:15:34.413Z,56.90
2019-04-30T13:18:44.370Z,57.70
2019-04-30T13:21:52.952Z,58.40
2019-04-30T13:25:12.867Z,59.20
2019-04-30T13:28:23.220Z,59.90
2019-04-30T13:31:31.821Z,62.10
2019-04-30T13:34:48.694Z,64.20
2019-04-30T13:38:07.301Z,65.50
2019-04-30T13:41:34.853Z,66.90
2019-04-30T13:44:45.224Z,66.20
2019-04-30T13:47:53.965Z,67.30
2019-04-30T13:51:02.690Z,67.50
2019-04-30T13:54:11.567Z,68.60
2019-04-30T13:57:34.082Z,69.50
2019-04-30T14:00:41.485Z,70.40
2019-04-30T14:03:59.022Z,71.30
2019-04-30T14:07:18.780Z,72.00
2019-04-30T14:10:29.429Z,72.40
2019-04-30T14:13:39.821Z,73.30
2019-04-30T14:16:48.554Z,72.80
2019-04-30T14:19:55.844Z,73.70
2019-04-30T14:23:05.977Z,75.90
2019-04-30T14:26:19.275Z,76.90
2019-04-30T14:29:25.616Z,75.60
2019-04-30T14:32:34.255Z,76.70
2019-04-30T14:35:42.906Z,76.60
2019-04-30T14:38:51.463Z,76.50
2019-04-30T14:42:02.205Z,76.30
2019-04-30T14:45:37.216Z,75.30
2019-04-30T14:48:51.201Z,75.40
2019-04-30T14:52:00.780Z,75.90
2019-04-30T14:55:29.356Z,76.60
2019-04-30T14:59:13.572Z,78.10
2019-04-30T15:02:30.305Z,79.20
2019-04-30T15:05:48.187Z,79.00
2019-04-30T15:08:49.516Z,80.60
2019-04-30T15:11:58.677Z,81.00
2019-04-30T15:15:09.392Z,81.90
2019-04-30T15:18:29.029Z,82.40
2019-04-30T15:21:36.412Z,81.60
2019-04-30T15:24:59.134Z,81.10
2019-04-30T15:28:17.638Z,81.20
2019-04-30T15:31:26.602Z,81.60
2019-04-30T15:34:35.386Z,82.30
2019-04-30T15:37:44.320Z,82.20
2019-04-30T15:41:03.697Z,82.50
2019-04-30T15:44:45.422Z,82.20
2019-04-30T15:47:53.308Z,82.60
2019-04-30T15:51:28.176Z,83.40
2019-04-30T15:54:36.868Z,84.20
2019-04-30T15:58:03.703Z,84.60
2019-04-30T16:02:53.435Z,85.30
2019-04-30T16:05:54.569Z,85.80
2019-04-30T16:09:05.813Z,86.60
2019-04-30T16:12:50.536Z,86.60
2019-04-30T16:16:19.210Z,86.40
2019-04-30T16:19:28.807Z,85.80
2019-04-30T16:22:39.974Z,86.80
2019-04-30T16:25:48.821Z,86.80
2019-04-30T16:28:58.613Z,86.70
2019-04-30T16:32:09.273Z,86.90
2019-04-30T16:35:19.719Z,86.90
2019-04-30T16:38:28.936Z,87.10
2019-04-30T16:41:49.572Z,87.50
2019-04-30T16:45:00.558Z,87.90
2019-04-30T16:48:09.827Z,87.80
2019-04-30T16:51:19.423Z,88.90
2019-04-30T16:54:29.233Z,89.60
2019-04-30T16:57:39.648Z,89.60
2019-04-30T17:00:49.266Z,89.50
2019-04-30T17:04:39.044Z,89.80
2019-04-30T17:08:13.837Z,89.60
2019-04-30T17:11:38.742Z,90.00
2019-04-30T17:14:49.281Z,89.40
2019-04-30T17:17:58.663Z,89.70
2019-04-30T17:21:09.739Z,90.10
2019-04-30T17:24:19.394Z,89.80
2019-04-30T17:27:29.367Z,89.80
2019-04-30T17:30:39.299Z,90.20
2019-04-30T17:33:48.376Z,90.50
2019-04-30T17:36:59.043Z,90.70
2019-04-30T17:40:19.430Z,90.70
2019-04-30T17:43:28.009Z,91.10
2019-04-30T17:46:38.534Z,91.60
2019-04-30T17:49:48.437Z,91.60
2019-04-30T17:53:09.685Z,91.70
2019-04-30T17:56:18.390Z,91.80
2019-04-30T17:59:27.087Z,92.00
2019-04-30T18:02:35.838Z,92.30
2019-04-30T18:05:46.374Z,92.30
2019-04-30T18:08:56.122Z,92.60
2019-04-30T18:12:04.750Z,92.50
2019-04-30T18:15:18.524Z,92.60
2019-04-30T18:18:33.352Z,93.10
2019-04-30T18:22:10.772Z,93.00
2019-04-30T18:25:30.830Z,93.40
2019-04-30T18:28:38.009Z,93.60
2019-04-30T18:31:46.612Z,93.70
2019-04-30T18:34:55.199Z,94.00
2019-04-30T18:38:03.770Z,93.90
2019-04-30T18:41:12.440Z,93.90
2019-04-30T18:44:20.960Z,94.20
2019-04-30T18:47:39.994Z,94.40
2019-04-30T18:50:59.067Z,94.70
2019-04-30T18:54:07.707Z,95.20
2019-04-30T18:57:16.349Z,95.30
2019-04-30T19:00:39.532Z,95.30
2019-04-30T19:03:49.238Z,95.60
2019-04-30T19:07:01.543Z,95.60
2019-04-30T19:10:19.957Z,95.70
2019-04-30T19:13:47.241Z,95.80
2019-04-30T19:17:19.457Z,95.90
2019-04-30T19:20:46.734Z,96.10
2019-04-30T19:24:08.627Z,96.20
2019-04-30T19:27:18.650Z,96.20
2019-04-30T19:30:39.023Z,96.30
2019-04-30T19:33:48.946Z,96.20
2019-04-30T19:36:58.568Z,96.20
2019-04-30T19:40:18.990Z,96.50
2019-04-30T19:43:28.562Z,96.60
2019-04-30T19:46:48.767Z,96.60
2019-04-30T19:49:59.493Z,96.90
2019-04-30T19:53:10.063Z,97.10
2019-04-30T19:56:20.603Z,96.90
2019-04-30T19:59:29.471Z,96.90
2019-04-30T20:02:48.727Z,96.80
2019-04-30T20:06:09.033Z,97.20
2019-04-30T20:09:19.379Z,97.20
2019-04-30T20:12:29.041Z,97.00
2019-04-30T20:15:39.291Z,97.40
2019-04-30T20:18:49.105Z,97.10
2019-04-30T20:21:59.503Z,97.70
2019-04-30T20:25:09.207Z,97.60
2019-04-30T20:28:38.581Z,97.60
2019-04-30T20:31:38.840Z,97.70
2019-04-30T20:34:48.925Z,97.70
2019-04-30T20:38:20.039Z,98.00
2019-04-30T20:41:29.294Z,97.90
2019-04-30T20:44:38.959Z,97.70
2019-04-30T20:47:49.589Z,97.80
2019-04-30T20:51:01.054Z,98.00
2019-04-30T20:54:09.139Z,98.30
2019-04-30T20:57:19.848Z,97.80
2019-04-30T21:00:28.000Z,97.90
2019-04-30T21:03:36.516Z,98.10
2019-04-30T21:06:45.034Z,98.00
2019-04-30T21:10:04.034Z,98.20
2019-04-30T21:13:12.701Z,98.30
2019-04-30T21:16:21.224Z,98.20
2019-04-30T21:19:29.945Z,98.10
2019-04-30T21:22:38.859Z,98.30
2019-04-30T21:25:49.153Z,98.60
2019-04-30T21:29:10.412Z,98.70
2019-04-30T21:32:32.757Z,98.90
2019-04-30T21:35:50.715Z,99.00
2019-04-30T21:38:59.505Z,99.10
2019-04-30T21:42:09.270Z,99.00
2019-04-30T21:45:18.436Z,99.10
2019-04-30T21:48:28.718Z,99.20
2019-04-30T21:51:40.000Z,99.50
2019-04-30T21:54:48.696Z,99.50
2019-04-30T21:57:59.258Z,99.90
2019-04-30T22:01:22.735Z,99.90
2019-04-30T22:04:41.890Z,99.90
2019-04-30T22:07:51.196Z,99.70
2019-04-30T22:11:10.224Z,99.30
2019-04-30T22:14:18.844Z,99.30
2019-04-30T22:17:29.180Z,99.20
2019-04-30T22:20:38.893Z,99.20
2019-04-30T22:23:47.501Z,99.10
2019-04-30T22:27:06.276Z,99.00
2019-04-30T22:30:15.056Z,99.00
2019-04-30T22:33:23.594Z,98.90
2019-04-30T22:36:38.650Z,98.70
2019-04-30T22:40:01.589Z,99.00
2019-04-30T22:43:10.262Z,99.40
2019-04-30T22:46:19.541Z,99.00
2019-04-30T22:49:28.259Z,99.10
2019-04-30T22:52:36.922Z,98.90
2019-04-30T22:55:45.440Z,98.90
2019-04-30T22:58:53.941Z,99.00
2019-04-30T23:02:34.835Z,99.10
2019-04-30T23:05:43.565Z,99.10
2019-04-30T23:08:52.185Z,99.10
2019-04-30T23:12:00.807Z,99.10
2019-04-30T23:15:10.714Z,99.30
2019-04-30T23:18:32.167Z,99.10
2019-04-30T23:21:40.335Z,99.10
2019-04-30T23:24:48.843Z,99.20
2019-04-30T23:27:57.399Z,99.40
2019-04-30T23:31:05.994Z,99.30
2019-04-30T23:34:18.077Z,98.90
2019-04-30T23:37:36.455Z,99.00
2019-04-30T23:40:50.620Z,99.00
2019-04-30T23:43:59.649Z,99.20
2019-04-30T23:47:08.168Z,99.10
2019-04-30T23:50:27.140Z,99.20
2019-04-30T23:53:35.971Z,99.10
2019-04-30T23:56:44.707Z,98.80
2019-04-30T23:59:53.366Z,98.70
